createdAt,value
2019-06-07T00:01:28.294Z,99718.21
2019-06-07T00:03:58.677Z,99719.80
2019-06-07T00:06:29.866Z,99720.66
2019-06-07T00:09:00.104Z,99723.02
2019-06-07T00:11:31.924Z,99723.02
2019-06-07T00:14:02.241Z,99718.30
2019-06-07T00:16:32.428Z,99718.30
2019-06-07T00:19:02.632Z,99720.48
2019-06-07T00:22:12.656Z,99715.45
2019-06-07T00:24:04.777Z,99714.19
2019-06-07T00:26:56.365Z,99706.87
2019-06-07T00:29:09.110Z,99702.14
2019-06-07T00:31:39.148Z,99702.14
2019-06-07T00:34:10.731Z,99686.22
2019-06-07T00:36:41.274Z,99686.22
2019-06-07T00:39:14.315Z,99683.27
2019-06-07T00:41:43.396Z,99672.30
2019-06-07T00:44:15.105Z,99667.95
2019-06-07T00:46:45.496Z,99672.01
2019-06-07T00:49:32.279Z,99671.33
2019-06-07T00:51:51.505Z,99672.36
2019-06-07T00:54:21.898Z,99672.36
2019-06-07T00:56:52.038Z,99666.69
2019-06-07T00:59:28.909Z,99664.75
2019-06-07T01:01:54.114Z,99664.36
2019-06-07T01:04:26.399Z,99664.36
2019-06-07T01:06:56.491Z,99666.39
2019-06-07T01:09:26.702Z,99654.89
2019-06-07T01:11:56.883Z,99656.14
2019-06-07T01:14:28.499Z,99656.32
2019-06-07T01:17:20.167Z,99654.16
2019-06-07T01:19:31.075Z,99647.88
2019-06-07T01:22:01.260Z,99647.88
2019-06-07T01:24:32.614Z,99652.19
2019-06-07T01:27:02.828Z,99652.19
2019-06-07T01:29:33.085Z,99648.93
2019-06-07T01:32:03.303Z,99645.94
2019-06-07T01:34:33.521Z,99645.55
2019-06-07T01:37:03.713Z,99647.77
2019-06-07T01:39:33.937Z,99647.77
2019-06-07T01:42:04.249Z,99653.73
2019-06-07T01:44:34.902Z,99658.07
2019-06-07T01:47:05.080Z,99651.48
2019-06-07T01:49:35.321Z,99651.48
2019-06-07T01:52:05.517Z,99659.92
2019-06-07T01:54:56.354Z,99659.92
2019-06-07T01:57:07.644Z,99655.22
2019-06-07T01:59:37.845Z,99670.32
2019-06-07T02:02:08.061Z,99670.32
2019-06-07T02:04:38.271Z,99669.17
2019-06-07T02:07:08.478Z,99659.28
2019-06-07T02:09:38.660Z,99659.28
2019-06-07T02:12:25.059Z,99663.83
2019-06-07T02:14:40.964Z,99663.83
2019-06-07T02:17:11.228Z,99661.47
2019-06-07T02:19:41.429Z,99661.47
2019-06-07T02:22:11.646Z,99658.70
2019-06-07T02:24:43.761Z,99655.89
2019-06-07T02:27:14.125Z,99655.89
2019-06-07T02:29:44.312Z,99656.98
2019-06-07T02:32:14.506Z,99656.98
2019-06-07T02:34:44.747Z,99652.72
2019-06-07T02:37:14.958Z,99643.26
2019-06-07T02:39:45.147Z,99643.26
2019-06-07T02:42:15.332Z,99637.08
2019-06-07T02:44:45.543Z,99622.70
2019-06-07T02:47:15.780Z,99615.48
2019-06-07T02:49:46.049Z,99618.38
2019-06-07T02:52:16.220Z,99619.46
2019-06-07T02:54:46.425Z,99619.46
2019-06-07T02:57:16.628Z,99612.44
2019-06-07T03:00:06.777Z,99604.36
2019-06-07T03:02:18.737Z,99604.36
2019-06-07T03:04:48.957Z,99602.28
2019-06-07T03:07:19.555Z,99601.48
2019-06-07T03:09:49.761Z,99597.52
2019-06-07T03:12:20.881Z,99597.52
2019-06-07T03:14:51.126Z,99598.33
2019-06-07T03:17:34.691Z,99598.33
2019-06-07T03:20:03.483Z,99601.02
2019-06-07T03:22:38.933Z,99601.02
2019-06-07T03:25:06.033Z,99599.78
2019-06-07T03:27:48.641Z,99599.78
2019-06-07T03:30:36.288Z,99594.25
2019-06-07T03:32:47.473Z,99591.29
2019-06-07T03:35:13.142Z,99595.24
2019-06-07T03:37:43.420Z,99595.24
2019-06-07T03:40:13.601Z,99601.48
2019-06-07T03:42:43.811Z,99601.48
2019-06-07T03:45:14.054Z,99590.16
2019-06-07T03:47:44.358Z,99584.45
2019-06-07T03:50:14.568Z,99584.45
2019-06-07T03:52:44.961Z,99588.54
2019-06-07T03:55:15.230Z,99586.20
2019-06-07T03:58:30.088Z,99585.25
2019-06-07T04:00:17.553Z,99578.68
2019-06-07T04:02:47.765Z,99578.68
2019-06-07T04:05:17.974Z,99573.34
2019-06-07T04:07:48.157Z,99568.75
2019-06-07T04:10:18.384Z,99568.75
2019-06-07T04:12:48.838Z,99562.11
2019-06-07T04:15:19.014Z,99562.11
2019-06-07T04:18:01.460Z,99555.88
2019-06-07T04:20:21.325Z,99555.88
2019-06-07T04:22:51.565Z,99555.33
2019-06-07T04:25:21.762Z,99556.91
2019-06-07T04:27:51.975Z,99549.94
2019-06-07T04:30:41.831Z,99548.61
2019-06-07T04:33:12.848Z,99550.43
2019-06-07T04:35:43.561Z,99545.55
2019-06-07T04:38:15.584Z,99539.98
2019-06-07T04:40:47.043Z,99532.64
2019-06-07T04:43:17.504Z,99532.64
2019-06-07T04:45:51.127Z,99519.43
2019-06-07T04:48:22.607Z,99521.32
2019-06-07T04:50:53.008Z,99520.69
2019-06-07T04:53:23.389Z,99520.69
2019-06-07T04:55:56.886Z,99506.76
2019-06-07T04:58:27.422Z,99504.56
2019-06-07T05:01:03.096Z,99495.41
2019-06-07T05:03:34.495Z,99495.41
2019-06-07T05:06:01.792Z,99507.55
2019-06-07T05:08:35.445Z,99502.96
2019-06-07T05:11:07.366Z,99502.16
2019-06-07T05:13:38.989Z,99502.16
2019-06-07T05:16:09.537Z,99498.16
2019-06-07T05:18:42.909Z,99495.20
2019-06-07T05:21:12.022Z,99499.22
2019-06-07T05:24:05.278Z,99493.53
2019-06-07T05:26:15.395Z,99496.73
2019-06-07T05:28:45.630Z,99488.23
2019-06-07T05:31:15.862Z,99493.98
2019-06-07T05:33:46.059Z,99500.31
2019-06-07T05:36:16.287Z,99493.49
2019-06-07T05:38:46.491Z,99496.45
2019-06-07T05:41:17.754Z,99496.45
2019-06-07T05:44:09.192Z,99498.09
2019-06-07T05:46:19.849Z,99488.39
2019-06-07T05:48:50.071Z,99497.13
2019-06-07T05:51:20.284Z,99492.34
2019-06-07T05:53:50.464Z,99485.46
2019-06-07T05:56:20.713Z,99479.16
2019-06-07T05:58:51.057Z,99479.16
2019-06-07T06:01:46.053Z,99478.75
2019-06-07T06:03:54.003Z,99468.02
2019-06-07T06:06:24.197Z,99471.25
2019-06-07T06:09:12.814Z,99465.30
2019-06-07T06:11:42.963Z,99463.12
2019-06-07T06:14:07.284Z,99463.50
2019-06-07T06:16:30.133Z,99457.91
2019-06-07T06:19:00.317Z,99456.13
2019-06-07T06:21:30.528Z,99456.13
2019-06-07T06:24:01.774Z,99456.59
2019-06-07T06:26:32.003Z,99441.49
2019-06-07T06:29:02.178Z,99442.02
2019-06-07T06:31:32.344Z,99442.02
2019-06-07T06:34:03.841Z,99446.89
2019-06-07T06:36:34.060Z,99441.42
2019-06-07T06:39:05.164Z,99444.97
2019-06-07T06:41:46.113Z,99449.55
2019-06-07T06:44:07.247Z,99439.35
2019-06-07T06:46:42.183Z,99443.48
2019-06-07T06:49:11.312Z,99443.48
2019-06-07T06:51:43.048Z,99442.10
2019-06-07T06:54:13.393Z,99437.31
2019-06-07T06:56:46.980Z,99437.31
2019-06-07T07:01:52.333Z,99431.25
2019-06-07T07:04:21.126Z,99442.53
2019-06-07T07:06:53.665Z,99430.48
2019-06-07T07:09:23.554Z,99423.42
2019-06-07T07:12:10.398Z,99423.42
2019-06-07T07:14:25.673Z,99419.41
2019-06-07T07:16:56.616Z,99410.97
2019-06-07T07:19:27.033Z,99413.41
2019-06-07T07:21:57.230Z,99413.41
2019-06-07T07:24:27.397Z,99407.64
2019-06-07T07:26:58.423Z,99407.64
2019-06-07T07:29:29.382Z,99393.86
2019-06-07T07:31:59.544Z,99393.86
2019-06-07T07:34:35.659Z,99394.00
2019-06-07T07:37:01.632Z,99385.55
2019-06-07T07:39:31.945Z,99383.44
2019-06-07T07:42:20.278Z,99383.44
2019-06-07T07:44:36.202Z,99386.89
2019-06-07T07:47:06.400Z,99373.59
2019-06-07T07:49:36.601Z,99368.34
2019-06-07T07:52:06.798Z,99355.11
2019-06-07T07:54:36.956Z,99355.11
2019-06-07T07:57:07.153Z,99348.76
2019-06-07T07:59:44.027Z,99348.76
2019-06-07T08:02:09.200Z,99350.17
2019-06-07T08:05:13.517Z,99340.98
2019-06-07T08:07:11.347Z,99331.68
2019-06-07T08:09:41.562Z,99331.68
2019-06-07T08:12:11.717Z,99309.80
2019-06-07T08:14:42.094Z,99309.80
2019-06-07T08:17:12.405Z,99309.80
2019-06-07T08:19:42.880Z,99302.38
2019-06-07T08:22:13.139Z,99302.73
2019-06-07T08:24:43.342Z,99285.39
2019-06-07T08:27:25.824Z,99285.39
2019-06-07T08:30:01.769Z,99283.50
2019-06-07T08:32:17.467Z,99263.98
2019-06-07T08:34:51.840Z,99257.57
2019-06-07T08:37:19.675Z,99257.57
2019-06-07T08:39:50.445Z,99248.91
2019-06-07T08:42:36.014Z,99254.85
2019-06-07T08:44:56.431Z,99254.85
2019-06-07T08:47:25.534Z,99253.78
2019-06-07T08:50:04.379Z,99260.95
2019-06-07T08:52:28.695Z,99260.95
2019-06-07T08:55:03.375Z,99240.05
2019-06-07T08:57:31.929Z,99240.05
2019-06-07T09:00:16.023Z,99251.18
2019-06-07T09:02:33.994Z,99230.97
2019-06-07T09:05:11.737Z,99222.11
2019-06-07T09:07:37.336Z,99225.31
2019-06-07T09:10:13.425Z,99228.20
2019-06-07T09:12:39.641Z,99225.48
2019-06-07T09:15:20.622Z,99230.83
2019-06-07T09:18:29.769Z,99230.83
2019-06-07T09:20:35.057Z,99218.41
2019-06-07T09:22:46.739Z,99218.41
2019-06-07T09:25:21.818Z,99217.92
2019-06-07T09:27:49.809Z,99213.66
2019-06-07T09:30:37.970Z,99213.77
2019-06-07T09:33:09.077Z,99213.77
2019-06-07T09:35:39.874Z,99202.85
2019-06-07T09:38:23.722Z,99202.85
2019-06-07T09:40:41.967Z,99197.91
2019-06-07T09:45:45.276Z,99181.48
2019-06-07T09:48:34.366Z,99171.57
2019-06-07T09:50:47.347Z,99171.30
2019-06-07T09:53:22.458Z,99171.30
2019-06-07T09:55:49.437Z,99171.34
2019-06-07T10:00:51.483Z,99139.38
2019-06-07T10:03:23.987Z,99147.59
2019-06-07T10:05:54.169Z,99136.00
2019-06-07T10:09:42.372Z,99136.00
2019-06-07T10:10:56.445Z,99134.39
2019-06-07T10:13:26.643Z,99126.69
2019-06-07T10:15:58.885Z,99127.08
2019-06-07T10:18:29.270Z,99127.56
2019-06-07T10:20:59.464Z,99121.32
2019-06-07T10:23:29.642Z,99115.23
2019-06-07T10:26:01.625Z,99114.34
2019-06-07T10:28:31.961Z,99114.34
2019-06-07T10:31:02.199Z,99113.80
2019-06-07T10:33:32.541Z,99116.70
2019-06-07T10:36:02.718Z,99116.70
2019-06-07T10:38:33.979Z,99111.34
2019-06-07T10:41:04.731Z,99103.70
2019-06-07T10:43:35.025Z,99103.50
2019-06-07T10:46:05.683Z,99096.38
2019-06-07T10:48:36.130Z,99102.92
2019-06-07T10:51:06.289Z,99102.92
2019-06-07T10:53:36.497Z,99097.05
2019-06-07T10:56:07.027Z,99095.02
2019-06-07T10:58:37.379Z,99089.42
2019-06-07T11:01:07.559Z,99084.59
2019-06-07T11:03:38.654Z,99071.41
2019-06-07T11:06:10.116Z,99071.41
2019-06-07T11:08:41.444Z,99066.39
2019-06-07T11:11:12.243Z,99068.95
2019-06-07T11:13:45.670Z,99064.22
2019-06-07T11:16:17.648Z,99055.03
2019-06-07T11:18:48.015Z,99054.91
2019-06-07T11:21:18.654Z,99042.58
2019-06-07T11:23:50.227Z,99025.45
2019-06-07T11:26:20.399Z,99024.79
2019-06-07T11:28:51.691Z,99034.23
2019-06-07T11:31:21.937Z,99024.46
2019-06-07T11:33:52.495Z,99024.46
2019-06-07T11:36:24.444Z,99011.35
2019-06-07T11:38:54.629Z,99014.88
2019-06-07T11:41:24.835Z,99007.47
2019-06-07T11:43:55.059Z,98997.45
2019-06-07T11:46:25.387Z,98997.45
2019-06-07T11:48:55.565Z,99002.63
2019-06-07T11:51:25.790Z,98985.70
2019-06-07T11:53:56.370Z,98985.70
2019-06-07T11:56:26.613Z,98986.54
2019-06-07T11:58:56.842Z,98973.56
2019-06-07T12:01:27.086Z,98976.63
2019-06-07T12:03:58.844Z,98968.84
2019-06-07T12:06:30.297Z,98968.84
2019-06-07T12:09:00.546Z,98963.13
2019-06-07T12:11:31.644Z,98963.75
2019-06-07T12:14:01.917Z,98959.72
2019-06-07T12:16:35.363Z,98953.62
2019-06-07T12:19:05.648Z,98947.13
2019-06-07T12:21:36.331Z,98943.33
2019-06-07T12:24:06.734Z,98929.59
2019-06-07T12:26:37.063Z,98924.25
2019-06-07T12:29:07.310Z,98934.66
2019-06-07T12:31:37.533Z,98933.09
2019-06-07T12:34:11.177Z,98930.41
2019-06-07T12:36:43.432Z,98912.72
2019-06-07T12:39:13.898Z,98917.27
2019-06-07T12:41:44.337Z,98917.27
2019-06-07T12:44:14.642Z,98904.44
2019-06-07T12:46:45.140Z,98898.73
2019-06-07T12:49:16.940Z,98897.36
2019-06-07T12:51:47.326Z,98897.36
2019-06-07T12:54:17.650Z,98904.12
2019-06-07T12:56:47.894Z,98890.45
2019-06-07T12:59:18.100Z,98882.83
2019-06-07T13:01:48.267Z,98884.52
2019-06-07T13:04:18.534Z,98884.52
2019-06-07T13:06:50.900Z,98864.97
2019-06-07T13:09:21.888Z,98876.58
2019-06-07T13:11:52.177Z,98876.58
2019-06-07T13:14:22.386Z,98874.63
2019-06-07T13:16:52.839Z,98864.63
2019-06-07T13:19:24.210Z,98862.20
2019-06-07T13:21:54.583Z,98871.37
2019-06-07T13:24:26.622Z,98863.96
2019-06-07T13:26:56.927Z,98854.79
2019-06-07T13:29:32.258Z,98852.17
2019-06-07T13:32:02.737Z,98847.22
2019-06-07T13:34:32.939Z,98845.34
2019-06-07T13:37:03.161Z,98848.86
2019-06-07T13:39:33.332Z,98844.25
2019-06-07T13:42:03.616Z,98844.25
2019-06-07T13:44:33.828Z,98838.19
2019-06-07T13:47:04.048Z,98830.96
2019-06-07T13:49:34.292Z,98823.58
2019-06-07T13:52:04.600Z,98821.83
2019-06-07T13:54:34.767Z,98815.37
2019-06-07T13:57:04.970Z,98808.17
2019-06-07T13:59:35.153Z,98797.31
2019-06-07T14:02:05.415Z,98798.44
2019-06-07T14:04:35.591Z,98795.13
2019-06-07T14:07:06.052Z,98798.30
2019-06-07T14:09:36.370Z,98789.30
2019-06-07T14:12:07.800Z,98789.30
2019-06-07T14:14:38.174Z,98788.49
2019-06-07T14:17:08.487Z,98788.49
2019-06-07T14:19:38.919Z,98789.25
2019-06-07T14:22:09.203Z,98783.42
2019-06-07T14:24:39.591Z,98783.42
2019-06-07T14:27:09.965Z,98783.45
2019-06-07T14:29:40.315Z,98769.66
2019-06-07T14:32:10.680Z,98769.66
2019-06-07T14:34:40.837Z,98761.10
2019-06-07T14:37:11.188Z,98756.34
2019-06-07T14:39:41.444Z,98754.74
2019-06-07T14:42:11.618Z,98763.94
2019-06-07T14:44:46.030Z,98763.94
2019-06-07T14:47:16.292Z,98769.02
2019-06-07T14:49:46.491Z,98771.28
2019-06-07T14:52:16.693Z,98778.51
2019-06-07T14:54:46.888Z,98778.51
2019-06-07T14:57:17.132Z,98773.59
2019-06-07T14:59:48.450Z,98780.45
2019-06-07T15:02:18.786Z,98787.13
2019-06-07T15:04:49.042Z,98787.13
2019-06-07T15:07:19.238Z,98799.02
2019-06-07T15:09:49.441Z,98796.48
2019-06-07T15:12:24.945Z,98799.14
2019-06-07T15:14:54.973Z,98784.98
2019-06-07T15:17:26.442Z,98784.98
2019-06-07T15:19:57.253Z,98779.47
2019-06-07T15:22:27.986Z,98768.16
2019-06-07T15:24:58.575Z,98761.27
2019-06-07T15:27:29.192Z,98758.67
2019-06-07T15:29:59.675Z,98767.20
2019-06-07T15:32:30.643Z,98776.86
2019-06-07T15:35:01.374Z,98779.21
2019-06-07T15:37:32.556Z,98777.17
2019-06-07T15:40:07.784Z,98780.48
2019-06-07T15:42:49.734Z,98777.00
2019-06-07T15:45:12.197Z,98774.34
2019-06-07T15:47:42.410Z,98763.89
2019-06-07T15:50:12.598Z,98756.09
2019-06-07T15:52:43.422Z,98757.74
2019-06-07T15:55:13.790Z,98757.74
2019-06-07T15:57:44.002Z,98772.04
2019-06-07T16:00:14.201Z,98772.04
2019-06-07T16:02:44.504Z,98781.09
2019-06-07T16:05:16.151Z,98784.73
2019-06-07T16:07:46.353Z,98790.08
2019-06-07T16:10:18.133Z,98804.95
2019-06-07T16:13:00.315Z,98821.38
2019-06-07T16:15:21.352Z,98837.99
2019-06-07T16:17:51.534Z,98837.99
2019-06-07T16:20:23.039Z,98830.16
2019-06-07T16:22:53.198Z,98831.06
2019-06-07T16:25:23.669Z,98832.81
2019-06-07T16:27:53.890Z,98841.31
2019-06-07T16:30:24.164Z,98837.95
2019-06-07T16:32:54.379Z,98838.86
2019-06-07T16:35:24.643Z,98840.87
2019-06-07T16:37:54.845Z,98853.23
2019-06-07T16:40:25.093Z,98853.23
2019-06-07T16:42:55.315Z,98875.44
2019-06-07T16:45:26.369Z,98891.94
2019-06-07T16:47:56.598Z,98901.35
2019-06-07T16:50:26.820Z,98903.33
2019-06-07T16:52:57.031Z,98919.14
2019-06-07T16:55:27.603Z,98928.56
2019-06-07T16:57:57.811Z,98926.56
2019-06-07T17:00:28.104Z,98931.27
2019-06-07T17:02:58.419Z,98928.56
2019-06-07T17:05:28.727Z,98928.77
2019-06-07T17:07:58.912Z,98951.41
2019-06-07T17:10:29.133Z,98981.58
2019-06-07T17:12:59.312Z,98991.18
2019-06-07T17:15:29.554Z,98991.18
2019-06-07T17:18:00.894Z,98999.12
2019-06-07T17:20:31.095Z,99000.16
2019-06-07T17:23:01.298Z,99000.16
2019-06-07T17:25:31.920Z,99006.11
2019-06-07T17:28:02.307Z,99028.88
2019-06-07T17:30:32.536Z,99051.67
2019-06-07T17:33:02.784Z,99089.69
2019-06-07T17:35:32.989Z,99117.93
2019-06-07T17:38:03.356Z,99117.93
2019-06-07T17:40:33.702Z,99118.90
2019-06-07T17:43:03.903Z,99136.55
2019-06-07T17:45:34.130Z,99170.59
2019-06-07T17:48:04.423Z,99170.59
2019-06-07T17:50:34.680Z,99176.91
2019-06-07T17:53:04.870Z,99192.63
2019-06-07T17:55:35.087Z,99194.15
2019-06-07T17:58:05.289Z,99206.08
2019-06-07T18:00:53.093Z,99253.58
2019-06-07T18:03:23.517Z,99253.58
2019-06-07T18:05:54.147Z,99291.97
2019-06-07T18:08:25.293Z,99284.42
2019-06-07T18:10:55.971Z,99284.42
2019-06-07T18:13:27.661Z,99305.28
2019-06-07T18:15:59.844Z,99320.17
2019-06-07T18:18:30.150Z,99320.17
2019-06-07T18:21:00.324Z,99344.20
2019-06-07T18:23:30.538Z,99370.49
2019-06-07T18:26:00.802Z,99390.58
2019-06-07T18:28:33.255Z,99390.58
2019-06-07T18:31:03.497Z,99408.59
2019-06-07T18:33:34.071Z,99408.59
2019-06-07T18:36:04.573Z,99411.28
2019-06-07T18:38:34.776Z,99412.58
2019-06-07T18:41:06.311Z,99433.09
2019-06-07T18:43:36.899Z,99555.66
2019-06-07T18:46:07.127Z,99555.66
2019-06-07T18:48:38.956Z,99554.94
2019-06-07T18:51:10.909Z,99508.12
2019-06-07T18:53:49.789Z,99508.12
2019-06-07T18:56:25.007Z,99538.00
2019-06-07T18:58:56.779Z,99558.55
2019-06-07T19:01:28.492Z,99558.55
2019-06-07T19:03:59.678Z,99585.50
2019-06-07T19:06:43.876Z,99590.78
2019-06-07T19:09:14.415Z,99609.98
2019-06-07T19:11:53.181Z,99614.30
2019-06-07T19:14:36.704Z,99640.97
2019-06-07T19:16:58.014Z,99666.64
2019-06-07T19:19:28.310Z,99666.64
2019-06-07T19:22:00.188Z,99637.73
2019-06-07T19:24:31.809Z,99639.56
2019-06-07T19:27:02.026Z,99637.59
2019-06-07T19:29:32.221Z,99637.59
2019-06-07T19:32:02.440Z,99638.42
2019-06-07T19:34:32.925Z,99630.73
2019-06-07T19:37:04.731Z,99634.67
2019-06-07T19:39:38.241Z,99634.67
2019-06-07T19:42:09.764Z,99657.50
2019-06-07T19:44:53.047Z,99657.50
2019-06-07T19:47:13.029Z,99684.00
2019-06-07T19:49:46.870Z,99686.09
2019-06-07T19:52:17.037Z,99686.09
2019-06-07T19:54:47.252Z,99700.62
2019-06-07T19:57:19.094Z,99712.41
2019-06-07T19:59:49.307Z,99725.92
2019-06-07T20:02:19.487Z,99727.78
2019-06-07T20:04:49.706Z,99735.55
2019-06-07T20:07:20.939Z,99737.38
2019-06-07T20:09:51.170Z,99732.55
2019-06-07T20:12:21.611Z,99724.38
2019-06-07T20:14:55.375Z,99724.38
2019-06-07T20:17:24.057Z,99742.36
2019-06-07T20:19:54.248Z,99740.63
2019-06-07T20:22:25.036Z,99758.24
2019-06-07T20:25:06.537Z,99771.76
2019-06-07T20:27:36.739Z,99784.81
2019-06-07T20:30:08.575Z,99784.81
2019-06-07T20:32:38.995Z,99779.89
2019-06-07T20:35:09.253Z,99783.07
2019-06-07T20:37:40.449Z,99783.07
2019-06-07T20:40:23.572Z,99777.88
2019-06-07T20:42:42.587Z,99775.98
2019-06-07T20:45:13.124Z,99803.31
2019-06-07T20:47:43.346Z,99803.31
2019-06-07T20:50:13.630Z,99813.45
2019-06-07T20:52:43.898Z,99813.45
2019-06-07T20:55:14.349Z,99801.61
2019-06-07T20:57:45.762Z,99801.61
2019-06-07T21:00:21.366Z,99808.80
2019-06-07T21:02:47.948Z,99805.31
2019-06-07T21:05:18.253Z,99799.62
2019-06-07T21:07:48.932Z,99799.62
2019-06-07T21:10:19.103Z,99797.66
2019-06-07T21:12:49.321Z,99783.66
2019-06-07T21:15:19.501Z,99781.41
2019-06-07T21:17:49.699Z,99781.41
2019-06-07T21:20:19.894Z,99779.37
2019-06-07T21:22:50.096Z,99787.53
2019-06-07T21:25:20.288Z,99785.70
2019-06-07T21:27:50.487Z,99784.70
2019-06-07T21:30:20.682Z,99786.27
2019-06-07T21:32:50.892Z,99756.96
2019-06-07T21:35:22.657Z,99746.36
2019-06-07T21:37:52.905Z,99760.16
2019-06-07T21:40:23.388Z,99757.13
2019-06-07T21:42:53.545Z,99757.13
2019-06-07T21:45:23.739Z,99771.77
2019-06-07T21:47:53.940Z,99785.44
2019-06-07T21:50:24.104Z,99785.44
2019-06-07T21:52:54.322Z,99797.66
2019-06-07T21:55:24.512Z,99797.66
2019-06-07T21:57:55.431Z,99783.80
2019-06-07T22:00:57.035Z,99801.10
2019-06-07T22:03:27.932Z,99819.28
2019-06-07T22:05:59.912Z,99819.28
2019-06-07T22:08:32.319Z,99832.39
2019-06-07T22:11:03.755Z,99837.91
2019-06-07T22:13:34.669Z,99860.59
2019-06-07T22:16:21.250Z,99865.38
2019-06-07T22:18:38.339Z,99865.38
2019-06-07T22:21:10.745Z,99867.70
2019-06-07T22:23:47.665Z,99869.97
2019-06-07T22:26:21.715Z,99872.69
2019-06-07T22:28:52.819Z,99872.69
2019-06-07T22:31:23.049Z,99851.63
2019-06-07T22:33:53.370Z,99852.80
2019-06-07T22:36:23.903Z,99852.80
2019-06-07T22:38:55.144Z,99851.20
2019-06-07T22:41:25.353Z,99860.61
2019-06-07T22:43:55.554Z,99871.00
2019-06-07T22:46:36.819Z,99881.66
2019-06-07T22:48:58.014Z,99881.66
2019-06-07T22:51:28.734Z,99899.49
2019-06-07T22:53:58.936Z,99900.23
2019-06-07T22:56:34.504Z,99900.23
2019-06-07T22:59:04.756Z,99899.04
2019-06-07T23:01:34.933Z,99895.83
2019-06-07T23:04:05.122Z,99900.06
2019-06-07T23:06:35.293Z,99914.16
2019-06-07T23:09:06.579Z,99916.64
2019-06-07T23:11:36.862Z,99907.30
2019-06-07T23:14:07.078Z,99915.02
2019-06-07T23:16:54.415Z,99915.02
2019-06-07T23:19:10.290Z,99895.38
2019-06-07T23:21:40.491Z,99899.99
2019-06-07T23:24:11.809Z,99899.99
2019-06-07T23:26:42.149Z,99913.05
2019-06-07T23:29:12.519Z,99920.04
2019-06-07T23:31:43.243Z,99917.22
2019-06-07T23:34:14.622Z,99907.52
2019-06-07T23:36:44.908Z,99894.05
2019-06-07T23:39:15.457Z,99876.22
2019-06-07T23:41:45.726Z,99886.25
2019-06-07T23:44:17.133Z,99897.72
2019-06-07T23:46:49.144Z,99897.72
2019-06-07T23:49:19.632Z,99876.36
2019-06-07T23:51:50.017Z,99876.36
2019-06-07T23:54:20.242Z,99906.68
2019-06-07T23:56:50.415Z,99905.36
2019-06-07T23:59:22.055Z,99898.31
